Time;durP1;ratioP1;P1;durP2;ratioP2;P2;SDS_P1;SDS_P2;PMS_P1;PMS_P2;Temp;Humidity;BMP_temperature;BMP_pressure;BME280_temperature;BME280_humidity;BME280_pressure;Samples;Min_cycle;Max_cycle;Signal;HPM_P1;HPM_P2
2021/08/06 00:02:02;;;;;;;1.95;1.17;;;;;;;;;;5071026;28;20477;-80
2021/08/06 00:04:28;;;;;;;2.13;1.17;;;;;;;;;;5070608;28;20025;-79
2021/08/06 00:06:54;;;;;;;1.48;1.05;;;;;;;;;;5059884;28;20044;-79
2021/08/06 00:09:20;;;;;;;2.80;1.10;;;;;;;;;;5069902;28;20033;-79
2021/08/06 00:11:46;;;;;;;1.65;1.20;;;;;;;;;;5070589;28;20037;-80
2021/08/06 00:14:12;;;;;;;3.47;1.23;;;;;;;;;;5057817;28;20045;-79
2021/08/06 00:16:38;;;;;;;3.78;1.20;;;;;;;;;;5070894;28;20033;-79
2021/08/06 00:19:04;;;;;;;1.30;1.15;;;;;;;;;;5070229;28;20485;-79
2021/08/06 00:21:30;;;;;;;1.52;1.20;;;;;;;;;;5069864;28;20028;-80
2021/08/06 00:23:56;;;;;;;1.42;1.30;;;;;;;;;;5067128;22;20046;-80
2021/08/06 00:26:22;;;;;;;2.55;1.25;;;;;;;;;;5036468;28;20029;-80
2021/08/06 00:28:48;;;;;;;3.08;1.48;;;;;;;;;;5037160;28;20410;-81
2021/08/06 00:31:14;;;;;;;1.85;1.35;;;;;;;;;;5035853;28;20028;-80
2021/08/06 00:33:40;;;;;;;1.70;1.25;;;;;;;;;;5048597;28;20119;-80
2021/08/06 00:36:07;;;;;;;1.55;1.17;;;;;;;;;;5057101;28;20547;-80
2021/08/06 00:38:33;;;;;;;5.88;1.55;;;;;;;;;;5056458;28;20100;-81
2021/08/06 00:40:59;;;;;;;1.77;1.48;;;;;;;;;;5055735;28;20040;-80
2021/08/06 00:43:25;;;;;;;1.38;1.10;;;;;;;;;;5056210;28;20033;-80
2021/08/06 00:45:51;;;;;;;3.13;1.30;;;;;;;;;;5056062;28;20021;-81
2021/08/06 00:48:17;;;;;;;4.28;1.52;;;;;;;;;;5055891;28;20029;-80
2021/08/06 00:50:43;;;;;;;2.88;1.40;;;;;;;;;;5055012;28;20099;-80
2021/08/06 00:53:09;;;;;;;2.63;1.20;;;;;;;;;;5055755;28;20067;-80
2021/08/06 00:55:35;;;;;;;1.55;1.02;;;;;;;;;;5054488;28;20427;-79
2021/08/06 00:58:01;;;;;;;4.90;1.40;;;;;;;;;;5055775;28;20554;-80
2021/08/06 01:00:27;;;;;;;3.40;1.30;;;;;;;;;;5055256;28;20029;-80
2021/08/06 01:03:02;;;;;;;1.70;1.30;;;;;;;;;;5054187;28;20099;-80
2021/08/06 01:05:29;;;;;;;3.70;1.38;;;;;;;;;;5055976;28;20033;-80
2021/08/06 01:08:05;;;;;;;5.30;1.42;;;;;;;;;;5055949;28;20056;-81
2021/08/06 01:10:46;;;;;;;3.13;1.40;;;;;;;;;;5055019;28;20029;-80
2021/08/06 01:13:14;;;;;;;1.67;1.27;;;;;;;;;;5055695;28;20103;-80
2021/08/06 01:15:41;;;;;;;6.68;1.30;;;;;;;;;;5056275;28;20021;-79
2021/08/06 01:18:08;;;;;;;3.20;1.40;;;;;;;;;;5055598;28;20029;-80
2021/08/06 01:20:39;;;;;;;2.67;1.40;;;;;;;;;;5054500;28;20017;-80
2021/08/06 01:23:16;;;;;;;3.05;1.40;;;;;;;;;;5056056;28;20033;-80
2021/08/06 01:25:46;;;;;;;4.47;1.20;;;;;;;;;;5056372;28;20374;-81
2021/08/06 01:28:18;;;;;;;1.38;1.20;;;;;;;;;;5038871;28;20040;-82
2021/08/06 01:30:44;;;;;;;1.55;1.23;;;;;;;;;;5040952;28;20063;-81
2021/08/06 01:33:12;;;;;;;2.42;1.13;;;;;;;;;;5057331;28;20032;-80
2021/08/06 01:35:38;;;;;;;2.22;1.20;;;;;;;;;;5058406;28;20473;-79
2021/08/06 01:38:04;;;;;;;1.98;1.23;;;;;;;;;;5059689;28;20582;-79
2021/08/06 01:40:33;;;;;;;1.80;1.17;;;;;;;;;;5060183;28;20033;-79
2021/08/06 01:43:04;;;;;;;1.67;1.10;;;;;;;;;;5056120;28;20116;-80
2021/08/06 01:45:33;;;;;;;2.15;1.15;;;;;;;;;;5036675;28;20025;-81
2021/08/06 01:47:59;;;;;;;4.60;1.30;;;;;;;;;;5054656;28;20029;-80
2021/08/06 01:50:27;;;;;;;3.05;1.40;;;;;;;;;;5054056;28;20401;-80
2021/08/06 01:52:59;;;;;;;2.30;1.10;;;;;;;;;;5054675;28;20029;-81
2021/08/06 01:55:28;;;;;;;1.90;1.27;;;;;;;;;;5054083;28;20021;-80
2021/08/06 01:57:55;;;;;;;3.55;1.20;;;;;;;;;;5053627;28;20025;-80
2021/08/06 02:00:21;;;;;;;2.28;1.23;;;;;;;;;;5054984;28;20025;-80
2021/08/06 02:02:47;;;;;;;2.03;1.08;;;;;;;;;;5054763;28;20103;-80
2021/08/06 02:05:15;;;;;;;2.35;1.00;;;;;;;;;;5055051;28;20493;-80
2021/08/06 02:07:41;;;;;;;2.42;1.15;;;;;;;;;;5054777;28;20040;-81
2021/08/06 02:10:08;;;;;;;1.45;0.90;;;;;;;;;;5055096;28;20396;-80
2021/08/06 02:12:34;;;;;;;1.35;0.90;;;;;;;;;;5054875;28;20370;-80
2021/08/06 02:15:00;;;;;;;1.50;0.90;;;;;;;;;;5054546;28;20508;-80
2021/08/06 02:17:27;;;;;;;2.28;0.90;;;;;;;;;;5054935;28;20078;-80
2021/08/06 02:19:53;;;;;;;1.52;1.10;;;;;;;;;;5054476;28;20029;-80
2021/08/06 02:22:20;;;;;;;1.15;0.90;;;;;;;;;;5054801;28;20078;-81
2021/08/06 02:24:46;;;;;;;2.53;0.85;;;;;;;;;;5055721;28;20031;-80
2021/08/06 02:27:15;;;;;;;3.65;1.00;;;;;;;;;;5055701;28;20081;-79
2021/08/06 02:29:42;;;;;;;3.42;1.00;;;;;;;;;;5054846;28;20031;-79
2021/08/06 02:32:08;;;;;;;0.90;0.75;;;;;;;;;;5053880;28;20033;-80
2021/08/06 02:34:35;;;;;;;1.45;1.02;;;;;;;;;;5054274;28;20018;-80
2021/08/06 02:37:01;;;;;;;3.15;0.77;;;;;;;;;;5053900;28;20381;-79
2021/08/06 02:39:28;;;;;;;3.47;1.00;;;;;;;;;;5052931;28;20531;-79
2021/08/06 02:41:58;;;;;;;2.53;1.02;;;;;;;;;;5053448;28;20021;-81
2021/08/06 02:44:24;;;;;;;3.22;0.93;;;;;;;;;;5053290;28;20037;-78
2021/08/06 02:46:50;;;;;;;1.88;0.90;;;;;;;;;;5053154;28;20036;-80
2021/08/06 02:49:16;;;;;;;1.30;0.82;;;;;;;;;;5052115;28;20392;-81
2021/08/06 02:51:42;;;;;;;1.15;0.90;;;;;;;;;;5052739;28;20501;-79
2021/08/06 02:54:09;;;;;;;1.58;0.90;;;;;;;;;;5052879;28;20029;-80
2021/08/06 02:56:35;;;;;;;1.98;0.90;;;;;;;;;;5053194;28;20035;-80
2021/08/06 02:59:01;;;;;;;3.30;0.88;;;;;;;;;;5056365;28;20031;-80
2021/08/06 03:01:27;;;;;;;3.33;1.10;;;;;;;;;;5056887;28;20086;-80
2021/08/06 03:03:53;;;;;;;3.95;0.90;;;;;;;;;;5057176;28;20028;-80
2021/08/06 03:06:19;;;;;;;1.17;0.85;;;;;;;;;;5058059;28;20036;-80
2021/08/06 03:08:45;;;;;;;1.92;1.00;;;;;;;;;;5057124;28;20064;-80
2021/08/06 03:11:11;;;;;;;1.65;1.00;;;;;;;;;;5057408;28;20025;-80
2021/08/06 03:13:37;;;;;;;1.38;0.88;;;;;;;;;;5057085;28;20064;-80
2021/08/06 03:16:03;;;;;;;4.20;0.98;;;;;;;;;;5039689;28;20032;-81
2021/08/06 03:18:29;;;;;;;1.38;1.00;;;;;;;;;;5057263;28;20033;-81
2021/08/06 03:20:55;;;;;;;1.48;0.98;;;;;;;;;;5057597;28;20056;-80
2021/08/06 03:23:22;;;;;;;3.95;1.30;;;;;;;;;;5058391;28;20037;-81
2021/08/06 03:25:48;;;;;;;2.28;0.90;;;;;;;;;;5058398;28;20025;-80
2021/08/06 03:28:14;;;;;;;2.45;1.00;;;;;;;;;;5057596;28;20112;-80
2021/08/06 03:30:41;;;;;;;1.35;0.90;;;;;;;;;;5057203;28;20049;-80
2021/08/06 03:33:07;;;;;;;2.78;1.13;;;;;;;;;;5057370;28;20029;-80
2021/08/06 03:35:33;;;;;;;1.40;0.80;;;;;;;;;;5055186;28;20075;-80
2021/08/06 03:37:59;;;;;;;2.75;1.10;;;;;;;;;;5056891;28;20255;-80
2021/08/06 03:40:25;;;;;;;2.05;0.82;;;;;;;;;;5037929;28;20021;-80
2021/08/06 03:42:51;;;;;;;2.33;0.98;;;;;;;;;;5056658;28;20053;-80
2021/08/06 03:45:17;;;;;;;1.55;1.00;;;;;;;;;;5056874;28;20033;-81
2021/08/06 03:47:43;;;;;;;1.98;1.10;;;;;;;;;;5056712;28;20025;-80
2021/08/06 03:50:09;;;;;;;3.33;1.27;;;;;;;;;;5055806;28;20048;-80
2021/08/06 03:52:35;;;;;;;5.18;1.13;;;;;;;;;;5056737;28;20033;-81
2021/08/06 03:55:01;;;;;;;1.42;1.15;;;;;;;;;;5057395;28;20021;-81
2021/08/06 03:57:27;;;;;;;1.73;1.10;;;;;;;;;;5058056;28;20029;-80
2021/08/06 03:59:53;;;;;;;3.85;1.13;;;;;;;;;;5057393;28;20025;-80
2021/08/06 04:02:19;;;;;;;3.75;1.35;;;;;;;;;;5058420;28;20029;-80
2021/08/06 04:04:45;;;;;;;2.30;0.90;;;;;;;;;;5057584;28;20025;-80
2021/08/06 04:07:11;;;;;;;1.90;1.52;;;;;;;;;;5059167;28;20060;-81
2021/08/06 04:09:37;;;;;;;2.45;1.48;;;;;;;;;;5058983;28;20495;-81
2021/08/06 04:12:03;;;;;;;3.83;1.30;;;;;;;;;;5060475;28;20485;-81
2021/08/06 04:14:29;;;;;;;2.88;1.20;;;;;;;;;;5059484;28;20043;-80
2021/08/06 04:16:55;;;;;;;1.58;1.25;;;;;;;;;;5061380;28;20028;-81
2021/08/06 04:19:21;;;;;;;3.88;1.85;;;;;;;;;;5059410;28;20025;-79
2021/08/06 04:21:47;;;;;;;1.98;1.50;;;;;;;;;;5060686;28;20033;-81
2021/08/06 04:24:13;;;;;;;3.40;1.70;;;;;;;;;;5061480;28;20033;-80
2021/08/06 04:26:39;;;;;;;3.40;2.15;;;;;;;;;;5056859;28;20104;-81
2021/08/06 04:29:05;;;;;;;4.28;1.85;;;;;;;;;;5056811;28;20021;-81
2021/08/06 04:31:31;;;;;;;7.80;2.35;;;;;;;;;;5062317;28;20025;-80
2021/08/06 04:33:57;;;;;;;2.42;1.80;;;;;;;;;;5062671;28;20088;-81
2021/08/06 04:36:23;;;;;;;5.97;2.35;;;;;;;;;;5063152;28;20032;-80
2021/08/06 04:38:49;;;;;;;4.40;2.40;;;;;;;;;;5062039;28;20029;-80
2021/08/06 04:41:15;;;;;;;5.60;2.58;;;;;;;;;;5061364;28;20172;-80
2021/08/06 04:43:41;;;;;;;4.28;2.85;;;;;;;;;;5060971;28;20089;-81
2021/08/06 04:46:07;;;;;;;3.30;2.22;;;;;;;;;;5060759;28;20029;-80
2021/08/06 04:48:33;;;;;;;4.05;2.25;;;;;;;;;;5060456;28;20111;-81
2021/08/06 04:50:59;;;;;;;5.13;1.98;;;;;;;;;;5060365;28;20060;-81
2021/08/06 04:53:25;;;;;;;2.97;2.40;;;;;;;;;;5058834;28;20505;-80
2021/08/06 04:55:51;;;;;;;2.80;2.40;;;;;;;;;;5060296;28;20021;-81
2021/08/06 04:58:17;;;;;;;4.97;2.60;;;;;;;;;;5060004;28;20520;-81
2021/08/06 05:00:43;;;;;;;7.60;2.58;;;;;;;;;;5059240;28;20017;-81
2021/08/06 05:03:09;;;;;;;5.15;2.50;;;;;;;;;;5060239;28;20047;-80
2021/08/06 05:05:36;;;;;;;3.95;2.45;;;;;;;;;;5059645;28;20029;-80
2021/08/06 05:08:02;;;;;;;3.65;2.53;;;;;;;;;;5058831;28;20179;-81
2021/08/06 05:10:28;;;;;;;3.83;2.60;;;;;;;;;;5038666;28;20029;-81
2021/08/06 05:12:54;;;;;;;3.97;2.13;;;;;;;;;;5058622;28;20063;-80
2021/08/06 05:15:21;;;;;;;3.67;2.17;;;;;;;;;;5060231;28;20025;-80
2021/08/06 05:17:46;;;;;;;3.03;2.20;;;;;;;;;;5059019;28;20025;-81
2021/08/06 05:20:13;;;;;;;2.22;1.85;;;;;;;;;;5054649;28;20025;-81
2021/08/06 05:22:39;;;;;;;4.15;2.50;;;;;;;;;;5060238;28;20044;-81
2021/08/06 05:25:05;;;;;;;4.80;2.10;;;;;;;;;;5061756;28;20029;-79
2021/08/06 05:27:31;;;;;;;3.10;2.15;;;;;;;;;;5059820;28;20037;-82
2021/08/06 05:29:57;;;;;;;2.55;1.85;;;;;;;;;;5054273;28;20104;-81
2021/08/06 05:32:23;;;;;;;2.80;2.03;;;;;;;;;;5055192;28;20093;-80
2021/08/06 05:34:50;;;;;;;2.63;1.75;;;;;;;;;;5054941;28;20029;-81
2021/08/06 05:37:16;;;;;;;4.38;2.00;;;;;;;;;;5054901;28;20021;-81
2021/08/06 05:39:42;;;;;;;4.57;2.00;;;;;;;;;;5054511;28;20425;-81
2021/08/06 05:42:08;;;;;;;4.53;1.98;;;;;;;;;;5053567;28;20124;-81
2021/08/06 05:44:34;;;;;;;2.78;1.92;;;;;;;;;;5054570;28;20086;-79
2021/08/06 05:47:00;;;;;;;3.67;2.00;;;;;;;;;;5052653;28;20021;-80
2021/08/06 05:49:26;;;;;;;4.40;1.63;;;;;;;;;;5056850;28;20036;-81
2021/08/06 05:51:52;;;;;;;3.22;1.67;;;;;;;;;;5057598;28;20025;-81
2021/08/06 05:54:18;;;;;;;2.08;1.33;;;;;;;;;;5035806;28;20104;-82
2021/08/06 05:56:44;;;;;;;3.55;1.30;;;;;;;;;;5036625;28;20504;-81
2021/08/06 05:59:10;;;;;;;1.80;1.50;;;;;;;;;;5037251;28;20045;-81
2021/08/06 06:01:36;;;;;;;1.80;1.30;;;;;;;;;;5037209;28;20029;-80
2021/08/06 06:04:02;;;;;;;2.90;1.33;;;;;;;;;;5052286;28;20612;-82
2021/08/06 06:06:28;;;;;;;3.08;1.30;;;;;;;;;;5054282;28;20040;-81
2021/08/06 06:08:54;;;;;;;1.70;1.13;;;;;;;;;;5053276;28;20026;-79
2021/08/06 06:11:20;;;;;;;2.22;1.30;;;;;;;;;;5052777;28;20036;-79
2021/08/06 06:13:47;;;;;;;1.63;1.30;;;;;;;;;;5036122;28;20508;-78
2021/08/06 06:16:13;;;;;;;1.83;1.25;;;;;;;;;;5052855;28;20036;-81
2021/08/06 06:18:39;;;;;;;6.47;1.30;;;;;;;;;;5053589;28;20112;-80
2021/08/06 06:21:06;;;;;;;2.20;1.17;;;;;;;;;;5053739;28;20049;-80
2021/08/06 06:23:33;;;;;;;2.35;1.35;;;;;;;;;;5053269;28;20099;-79
2021/08/06 06:25:59;;;;;;;1.70;1.10;;;;;;;;;;5053692;28;20029;-81
2021/08/06 06:28:25;;;;;;;5.03;1.42;;;;;;;;;;5053017;28;20032;-79
2021/08/06 06:30:51;;;;;;;2.53;1.40;;;;;;;;;;5051844;28;20040;-80
2021/08/06 06:33:17;;;;;;;3.40;1.60;;;;;;;;;;5052882;28;20524;-81
2021/08/06 06:35:43;;;;;;;3.35;1.55;;;;;;;;;;5039228;28;20100;-82
2021/08/06 06:38:09;;;;;;;3.53;1.70;;;;;;;;;;5053973;28;20036;-81
2021/08/06 06:40:35;;;;;;;3.03;1.38;;;;;;;;;;5052100;28;20028;-80
2021/08/06 06:43:02;;;;;;;2.70;1.73;;;;;;;;;;5053189;28;20033;-80
2021/08/06 06:45:28;;;;;;;4.85;1.52;;;;;;;;;;5052206;28;20025;-82
2021/08/06 06:47:54;;;;;;;3.03;1.23;;;;;;;;;;5053094;28;20413;-81
2021/08/06 06:50:21;;;;;;;3.17;1.27;;;;;;;;;;5046978;28;20074;-82
2021/08/06 06:52:48;;;;;;;1.85;1.10;;;;;;;;;;5047360;28;20055;-82
2021/08/06 06:55:14;;;;;;;4.13;1.10;;;;;;;;;;5049913;28;20022;-83
2021/08/06 06:57:49;;;;;;;2.38;0.93;;;;;;;;;;5050616;28;20481;-81
2021/08/06 07:00:15;;;;;;;4.88;1.30;;;;;;;;;;5053006;28;20021;-81
2021/08/06 07:02:41;;;;;;;2.97;1.10;;;;;;;;;;5053037;28;20025;-79
2021/08/06 07:05:08;;;;;;;8.32;1.30;;;;;;;;;;5052022;28;20028;-81
2021/08/06 07:07:34;;;;;;;2.50;1.10;;;;;;;;;;5053373;28;20104;-81
2021/08/06 07:10:00;;;;;;;1.10;0.80;;;;;;;;;;5054060;28;20064;-80
2021/08/06 07:12:26;;;;;;;1.90;0.80;;;;;;;;;;5034142;28;20421;-81
2021/08/06 07:14:52;;;;;;;1.50;0.88;;;;;;;;;;5034933;28;20021;-82
2021/08/06 07:17:18;;;;;;;1.25;0.73;;;;;;;;;;5033729;28;20022;-80
2021/08/06 07:19:44;;;;;;;2.97;0.80;;;;;;;;;;5033752;28;20380;-82
2021/08/06 07:22:10;;;;;;;1.35;0.93;;;;;;;;;;5050701;28;20099;-82
2021/08/06 07:24:36;;;;;;;1.52;0.77;;;;;;;;;;5053185;28;20120;-82
2021/08/06 07:27:02;;;;;;;1.42;0.65;;;;;;;;;;5037159;28;20397;-80
2021/08/06 07:29:28;;;;;;;2.13;0.60;;;;;;;;;;5052811;28;20041;-81
2021/08/06 07:31:54;;;;;;;2.08;0.90;;;;;;;;;;5052931;28;20029;-81
2021/08/06 07:34:20;;;;;;;1.75;0.88;;;;;;;;;;5052790;28;20029;-81
2021/08/06 07:36:46;;;;;;;2.28;0.88;;;;;;;;;;5051986;28;20545;-80
2021/08/06 07:39:12;;;;;;;1.98;0.90;;;;;;;;;;5034240;28;20037;-80
2021/08/06 07:41:38;;;;;;;1.45;0.88;;;;;;;;;;5051957;28;20086;-80
2021/08/06 07:44:04;;;;;;;1.48;0.77;;;;;;;;;;5054307;28;20486;-80
2021/08/06 07:46:30;;;;;;;1.27;0.70;;;;;;;;;;5055386;28;20167;-79
2021/08/06 07:48:56;;;;;;;1.58;0.80;;;;;;;;;;5055291;28;20098;-80
2021/08/06 07:51:22;;;;;;;2.83;0.77;;;;;;;;;;5055411;28;20029;-79
2021/08/06 07:53:48;;;;;;;1.92;0.80;;;;;;;;;;5055573;28;20473;-80
2021/08/06 07:56:15;;;;;;;4.25;0.80;;;;;;;;;;5055785;28;20047;-80
2021/08/06 07:58:41;;;;;;;2.22;0.95;;;;;;;;;;5055999;28;20025;-79
2021/08/06 08:01:07;;;;;;;2.90;0.90;;;;;;;;;;5056642;28;20029;-82
2021/08/06 08:03:33;;;;;;;4.25;0.80;;;;;;;;;;5039651;28;20104;-82
2021/08/06 08:06:00;;;;;;;1.00;0.70;;;;;;;;;;5055780;28;20044;-80
2021/08/06 08:08:26;;;;;;;3.40;0.85;;;;;;;;;;5054956;28;20032;-82
2021/08/06 08:10:52;;;;;;;2.20;0.95;;;;;;;;;;5037408;28;20029;-81
2021/08/06 08:13:18;;;;;;;1.85;0.73;;;;;;;;;;5032496;28;20066;-81
2021/08/06 08:15:45;;;;;;;2.38;0.60;;;;;;;;;;5052063;28;20017;-79
2021/08/06 08:18:11;;;;;;;2.03;0.63;;;;;;;;;;5052835;28;20025;-80
2021/08/06 08:20:37;;;;;;;1.15;0.60;;;;;;;;;;5055521;28;20074;-80
2021/08/06 08:23:03;;;;;;;2.25;1.35;;;;;;;;;;5038066;28;20041;-79
2021/08/06 08:25:29;;;;;;;2.55;0.70;;;;;;;;;;5055358;28;20032;-80
2021/08/06 08:27:55;;;;;;;1.67;0.68;;;;;;;;;;5036713;28;20108;-80
2021/08/06 08:30:21;;;;;;;1.58;0.80;;;;;;;;;;5054354;28;20025;-79
2021/08/06 08:32:47;;;;;;;2.88;0.68;;;;;;;;;;5037665;28;20025;-82
2021/08/06 08:35:13;;;;;;;1.50;0.70;;;;;;;;;;5054258;28;20063;-80
2021/08/06 08:37:39;;;;;;;3.25;0.88;;;;;;;;;;5054115;28;20075;-80
2021/08/06 08:40:06;;;;;;;1.27;0.50;;;;;;;;;;5053202;28;20070;-79
2021/08/06 08:42:32;;;;;;;1.48;0.50;;;;;;;;;;5036697;28;20036;-82
2021/08/06 08:45:01;;;;;;;0.75;0.50;;;;;;;;;;5054325;28;20025;-79
2021/08/06 08:47:27;;;;;;;3.50;0.57;;;;;;;;;;5054132;28;20021;-79
2021/08/06 08:49:54;;;;;;;1.90;0.63;;;;;;;;;;5053736;28;20473;-80
2021/08/06 08:52:20;;;;;;;1.08;0.52;;;;;;;;;;5032386;28;20017;-81
2021/08/06 08:54:47;;;;;;;2.53;0.70;;;;;;;;;;5050744;28;20013;-81
2021/08/06 08:57:17;;;;;;;1.17;0.75;;;;;;;;;;5051443;28;20343;-80
2021/08/06 08:59:43;;;;;;;1.45;0.63;;;;;;;;;;5051612;28;20075;-81
2021/08/06 09:02:10;;;;;;;2.72;0.52;;;;;;;;;;5053331;28;20036;-81
2021/08/06 09:04:36;;;;;;;1.63;0.60;;;;;;;;;;5053391;28;20024;-81
2021/08/06 09:07:02;;;;;;;3.70;0.75;;;;;;;;;;5036432;28;20037;-81
2021/08/06 09:09:29;;;;;;;2.08;0.60;;;;;;;;;;5055543;28;20048;-78
2021/08/06 09:12:15;;;;;;;1.38;0.70;;;;;;;;;;5055860;28;20104;-78
2021/08/06 09:14:41;;;;;;;2.97;0.70;;;;;;;;;;5051680;28;20040;-82
2021/08/06 09:17:12;;;;;;;1.35;0.60;;;;;;;;;;5052641;28;20029;-80
2021/08/06 09:19:40;;;;;;;2.80;1.20;;;;;;;;;;5051800;28;20808;-80
2021/08/06 09:22:17;;;;;;;1.80;0.70;;;;;;;;;;5032475;28;20084;-82
2021/08/06 09:25:03;;;;;;;1.98;0.90;;;;;;;;;;5046888;28;20382;-79
2021/08/06 09:27:32;;;;;;;1.17;0.77;;;;;;;;;;5049663;28;20037;-80
2021/08/06 09:29:58;;;;;;;2.72;0.65;;;;;;;;;;5049865;28;20032;-80
2021/08/06 09:32:24;;;;;;;1.83;0.77;;;;;;;;;;5033483;28;20044;-80
2021/08/06 09:34:50;;;;;;;1.27;0.50;;;;;;;;;;5049406;28;20048;-80
2021/08/06 09:37:22;;;;;;;1.83;0.60;;;;;;;;;;5031866;28;20055;-82
2021/08/06 09:39:50;;;;;;;2.20;0.93;;;;;;;;;;5050328;28;20032;-83
2021/08/06 09:42:21;;;;;;;5.47;0.80;;;;;;;;;;5051328;28;20025;-79
2021/08/06 09:45:00;;;;;;;2.03;0.80;;;;;;;;;;5050204;28;20052;-81
2021/08/06 09:47:27;;;;;;;2.65;0.93;;;;;;;;;;5050375;28;20112;-80
2021/08/06 09:49:55;;;;;;;3.42;0.73;;;;;;;;;;5049306;28;20048;-81
2021/08/06 09:52:32;;;;;;;3.33;0.82;;;;;;;;;;5032924;28;20028;-81
2021/08/06 09:54:58;;;;;;;3.65;0.82;;;;;;;;;;5052613;28;20016;-80
2021/08/06 09:57:24;;;;;;;2.78;0.82;;;;;;;;;;5035338;28;20508;-80
2021/08/06 09:59:52;;;;;;;1.88;0.57;;;;;;;;;;5052908;28;20035;-80
2021/08/06 10:02:38;;;;;;;3.33;0.80;;;;;;;;;;5040225;28;20378;-80
2021/08/06 10:05:06;;;;;;;2.20;0.75;;;;;;;;;;5051089;28;20056;-79
2021/08/06 10:07:33;;;;;;;1.25;0.60;;;;;;;;;;5052397;28;20541;-80
2021/08/06 10:09:59;;;;;;;2.25;0.70;;;;;;;;;;5052960;28;20143;-80
2021/08/06 10:12:25;;;;;;;3.63;0.95;;;;;;;;;;5035182;28;20052;-79
2021/08/06 10:14:51;;;;;;;3.22;0.70;;;;;;;;;;5052396;28;20017;-77
2021/08/06 10:17:17;;;;;;;2.47;0.60;;;;;;;;;;5048475;28;20021;-79
2021/08/06 10:19:43;;;;;;;4.78;0.70;;;;;;;;;;5052389;28;20107;-79
2021/08/06 10:22:10;;;;;;;2.78;0.60;;;;;;;;;;5053445;28;20053;-79
2021/08/06 10:24:37;;;;;;;1.63;0.60;;;;;;;;;;5054082;28;20033;-82
2021/08/06 10:27:03;;;;;;;3.72;0.68;;;;;;;;;;5054436;28;20024;-82
2021/08/06 10:29:29;;;;;;;1.25;0.45;;;;;;;;;;5052982;28;20064;-82
2021/08/06 10:32:09;;;;;;;0.80;0.32;;;;;;;;;;5055826;28;20040;-83
2021/08/06 10:34:35;;;;;;;1.77;0.68;;;;;;;;;;5037198;28;20504;-82
2021/08/06 10:37:01;;;;;;;1.85;0.63;;;;;;;;;;5054840;28;20494;-83
2021/08/06 10:39:31;;;;;;;2.70;0.60;;;;;;;;;;5044108;28;20032;-82
2021/08/06 10:41:57;;;;;;;1.27;0.57;;;;;;;;;;5056106;28;20017;-84
2021/08/06 10:44:23;;;;;;;2.65;0.57;;;;;;;;;;5057911;28;20025;-83
2021/08/06 10:47:01;;;;;;;4.75;0.82;;;;;;;;;;5053989;28;20161;-82
2021/08/06 10:49:28;;;;;;;4.40;0.70;;;;;;;;;;5053497;28;20028;-85
2021/08/06 10:52:13;;;;;;;2.25;0.68;;;;;;;;;;5053290;28;20025;-82
2021/08/06 10:54:39;;;;;;;2.97;0.90;;;;;;;;;;5045770;28;20636;-81
2021/08/06 10:57:12;;;;;;;1.38;0.60;;;;;;;;;;5053511;28;20447;-85
2021/08/06 10:59:39;;;;;;;3.00;0.50;;;;;;;;;;5056243;28;20025;-82
2021/08/06 11:02:05;;;;;;;2.15;0.50;;;;;;;;;;5062123;28;20539;-83
2021/08/06 11:04:31;;;;;;;2.75;0.95;;;;;;;;;;5060128;28;20037;-84
2021/08/06 11:06:58;;;;;;;1.95;0.50;;;;;;;;;;5055429;28;20070;-81
2021/08/06 11:09:27;;;;;;;3.25;0.52;;;;;;;;;;5036109;28;20093;-82
2021/08/06 11:12:04;;;;;;;0.80;0.30;;;;;;;;;;5035927;28;20029;-82
2021/08/06 11:14:33;;;;;;;2.95;0.50;;;;;;;;;;5053464;28;20108;-82
2021/08/06 11:16:59;;;;;;;2.83;0.50;;;;;;;;;;5053902;28;20045;-83
2021/08/06 11:19:29;;;;;;;1.27;0.40;;;;;;;;;;5056499;28;20071;-82
2021/08/06 11:21:55;;;;;;;1.65;0.60;;;22.20;99.90;;;;;;5040288;28;20021;-83
2021/08/06 11:24:20;;;;;;;1.17;0.50;;;25.40;99.90;;;;;;5058635;28;20040;-82
2021/08/06 11:26:50;;;;;;;2.78;0.50;;;24.50;99.90;;;;;;5058746;28;20040;-84
2021/08/06 11:29:17;;;;;;;1.85;0.50;;;24.70;99.90;;;;;;5057711;28;20033;-84
2021/08/06 11:31:43;;;;;;;3.72;0.57;;;25.10;99.90;;;;;;5057477;28;20052;-84
2021/08/06 11:34:09;;;;;;;1.85;0.57;;;25.20;99.90;;;;;;5059999;28;20036;-83
2021/08/06 11:36:35;;;;;;;3.80;0.50;;;25.60;99.90;;;;;;5058127;28;20017;-83
2021/08/06 11:39:12;;;;;;;1.23;0.50;;;25.40;99.90;;;;;;5059491;28;20021;-83
2021/08/06 11:41:46;;;;;;;1.30;0.35;;;25.70;99.90;;;;;;5060327;28;20051;-85
2021/08/06 11:44:12;;;;;;;1.77;0.40;;;25.60;99.90;;;;;;5056215;28;20028;-83
2021/08/06 11:46:45;;;;;;;5.75;0.60;;;25.30;99.90;;;;;;5041091;28;20036;-84
2021/08/06 11:49:10;;;;;;;3.53;0.80;;;25.10;99.90;;;;;;5050117;28;20086;-83
2021/08/06 11:52:00;;;;;;;1.90;0.50;;;25.10;99.90;;;;;;5058468;28;20489;-82
2021/08/06 11:54:26;;;;;;;1.92;0.57;;;24.20;99.90;;;;;;5038653;28;20037;-85
2021/08/06 11:57:00;;;;;;;3.08;0.60;;;24.30;99.90;;;;;;5038799;28;20215;-84
2021/08/06 11:59:26;;;;;;;2.58;0.50;;;25.10;99.90;;;;;;5051652;28;20037;-83
2021/08/06 12:02:15;;;;;;;1.98;0.38;;;25.20;99.90;;;;;;5056718;28;20079;-83
2021/08/06 12:04:41;;;;;;;3.83;0.40;;;24.80;99.90;;;;;;5057987;28;20028;-85
2021/08/06 12:07:07;;;;;;;1.48;0.38;;;;;;;;;;5057424;28;20025;-86
2021/08/06 12:09:33;;;;;;;1.70;0.40;;;;;;;;;;5057833;28;20025;-85
2021/08/06 12:11:59;;;;;;;3.10;0.38;;;;;;;;;;5056719;28;20052;-84
2021/08/06 12:14:27;;;;;;;1.58;0.40;;;;;;;;;;5012617;28;20178;-85
2021/08/06 12:16:53;;;;;;;2.42;0.50;;;;;;;;;;5035888;28;20108;-84
2021/08/06 12:19:19;;;;;;;1.63;0.40;;;;;;;;;;5032377;28;20900;-81
2021/08/06 12:21:46;;;;;;;2.80;0.47;;;;;;;;;;5049091;28;20041;-84
2021/08/06 12:24:14;;;;;;;1.35;0.50;;;;;;;;;;5033933;28;20389;-81
2021/08/06 12:26:40;;;;;;;1.55;0.40;;;;;;;;;;5051365;28;20503;-86
2021/08/06 12:29:11;;;;;;;1.83;0.40;;;;;;;;;;5053447;28;20151;-84
2021/08/06 12:31:51;;;;;;;1.67;0.40;;;;;;;;;;5049488;28;20029;-83
2021/08/06 12:34:20;;;;;;;2.30;0.68;;;;;;;;;;5049588;28;20029;-80
2021/08/06 12:37:12;;;;;;;2.28;0.50;;;;;;;;;;5047955;28;21116;-82
2021/08/06 12:39:47;;;;;;;1.77;0.35;;;;;;;;;;5041055;28;20501;-82
2021/08/06 12:42:14;;;;;;;1.80;0.50;;;;;;;;;;5049985;28;20105;-82
2021/08/06 12:44:40;;;;;;;2.42;0.70;;;;;;;;;;5030031;28;20068;-81
2021/08/06 12:47:16;;;;;;;1.13;0.40;;;;;;;;;;5051529;28;20033;-81
2021/08/06 12:49:45;;;;;;;2.03;0.43;;;;;;;;;;5024466;28;20029;-80
2021/08/06 12:52:19;;;;;;;1.40;0.40;;;;;;;;;;5033425;28;20485;-81
2021/08/06 12:54:47;;;;;;;2.00;0.40;;;;;;;;;;5058773;28;20040;-80
2021/08/06 12:57:14;;;;;;;1.52;0.40;;;;;;;;;;5046611;28;20025;-79
2021/08/06 12:59:43;;;;;;;1.42;0.50;;;;;;;;;;5053143;28;20021;-80
2021/08/06 13:02:20;;;;;;;2.38;0.50;;;24.90;99.90;;;;;;5056056;28;20020;-81
2021/08/06 13:04:48;;;;;;;2.22;0.70;;;27.00;94.80;;;;;;5055920;28;20025;-80
2021/08/06 13:07:24;;;;;;;1.25;0.40;;;26.30;95.40;;;;;;5054175;28;20366;-82
2021/08/06 13:09:50;;;;;;;1.85;0.35;;;25.70;95.50;;;;;;5036385;28;20037;-82
2021/08/06 13:12:17;;;;;;;0.70;0.30;;;26.00;95.30;;;;;;5035160;28;20028;-82
2021/08/06 13:14:44;;;;;;;2.08;0.30;;;26.00;95.10;;;;;;5053886;28;20025;-82
2021/08/06 13:17:12;;;;;;;2.90;0.40;;;25.50;94.70;;;;;;5037014;28;20021;-82
2021/08/06 13:19:38;;;;;;;1.10;0.30;;;25.00;95.60;;;;;;5020501;28;20033;-82
2021/08/06 13:22:09;;;;;;;0.85;0.40;;;24.30;95.60;;;;;;5054358;28;20358;-82
2021/08/06 13:24:36;;;;;;;4.22;0.40;;;23.80;95.60;;;;;;5036266;28;20048;-83
2021/08/06 13:27:03;;;;;;;1.50;0.40;;;23.60;96.80;;;;;;5037079;28;20487;-83
2021/08/06 13:29:28;;;;;;;1.25;0.20;;;23.50;96.90;;;;;;5053445;28;20127;-82
2021/08/06 13:31:57;;;;;;;0.60;0.40;;;23.30;97.60;;;;;;5051479;28;20036;-81
2021/08/06 13:34:22;;;;;;;3.08;0.50;;;23.50;97.50;;;;;;5036113;28;20056;-81
2021/08/06 13:36:48;;;;;;;0.98;0.40;;;23.50;97.70;;;;;;5054455;28;20021;-81
2021/08/06 13:39:16;;;;;;;2.33;0.45;;;24.20;97.80;;;;;;5036390;28;20116;-82
2021/08/06 13:41:42;;;;;;;1.45;0.30;;;24.40;97.50;;;;;;5054006;28;20017;-82
2021/08/06 13:44:07;;;;;;;3.28;0.43;;;24.00;97.00;;;;;;5050960;28;20033;-82
2021/08/06 13:46:34;;;;;;;1.80;0.30;;;23.90;98.10;;;;;;5054245;28;20501;-82
2021/08/06 13:49:01;;;;;;;2.40;0.52;;;23.30;97.80;;;;;;5053309;28;20053;-81
2021/08/06 13:51:28;;;;;;;1.50;0.52;;;22.90;99.20;;;;;;5053518;28;20096;-81
2021/08/06 13:53:54;;;;;;;1.92;0.47;;;22.60;99.80;;;;;;5053850;28;20024;-80
2021/08/06 13:56:19;;;;;;;2.97;0.47;;;22.50;99.90;;;;;;5049068;28;20029;-81
2021/08/06 13:58:45;;;;;;;2.58;0.50;;;22.60;99.90;;;;;;5055095;28;20063;-81
2021/08/06 14:01:11;;;;;;;2.03;0.40;;;22.90;99.90;;;;;;5019722;28;20037;-82
2021/08/06 14:03:36;;;;;;;2.88;0.50;;;22.90;99.30;;;;;;5054009;28;20025;-82
2021/08/06 14:06:06;;;;;;;2.08;0.45;;;23.10;99.60;;;;;;5054805;28;20025;-81
2021/08/06 14:08:31;;;;;;;1.90;0.50;;;24.50;97.30;;;;;;5052843;28;20029;-81
2021/08/06 14:10:57;;;;;;;1.58;0.50;;;25.50;95.70;;;;;;5043134;28;20163;-82
2021/08/06 14:13:23;;;;;;;3.45;0.30;;;26.80;93.30;;;;;;5052959;28;20082;-82
2021/08/06 14:15:48;;;;;;;1.38;0.22;;;26.60;90.90;;;;;;5054574;28;20033;-82
2021/08/06 14:18:14;;;;;;;1.75;0.40;;;27.40;89.50;;;;;;5054451;28;20088;-82
2021/08/06 14:20:40;;;;;;;1.30;0.30;;;26.70;89.90;;;;;;5053242;28;20025;-83
2021/08/06 14:23:06;;;;;;;1.50;0.38;;;26.70;89.30;;;;;;5050410;28;20115;-82
2021/08/06 14:25:33;;;;;;;2.03;0.50;;;26.10;90.50;;;;;;5040992;28;20880;-82